aviador You're here:

KEPH Decoded Metar

EPHRATA in WA, USA
Report Time2018-06-24 21:53:00
UTC Time2018-06-24 22:40:47
Flight Rules vfr VFR
Wind180° at 08 Gusting to 17 kt
W.Decomp.*RWY 21: 5.6 kt HW 5.8 kt LCW
RWY 11: 4.7 kt HW 6.5 kt RCW
RWY 22: 4.5 kt HW 6.6 kt LCW
W.Rank180° ranks 17
Current wind is above 180° avg. (7.3)
Visibility9999 m
Phenomena:N/A
Clouds:N/A
Expected CloudBase > 9,200 ft AGL from Temp-Dew spread
CeilingNone
Temp31°C (ISA +18)
Dew Point08°C (24% RH)
Heat Index29.3°C
AAT27.7°C
QNH1013 hPa
Density Alt3,514 ft
Elevation1,257 ft
Report Wrong Elevation
Raw Report
KEPH 242153Z AUTO 18008G17KT 10SM CLR 31/08 A2992 RMK AO2 SLP122
T03060083=

Extra information for KEPH:More info

Metar Taf Metar & Taf Last 4 Metars F.Rules Stats Wind Profile Meteogram Temp Stats Airport Information Weather charts Add Link Nearby VenuesMetar ALERT Operation Metar Decoded Social comments

AIRNAV info for KEPH